sensor_id;sensor_type;location;lat;lon;timestamp;temperature;humidity
21635;DHT22;10979;48.306;9.830;2022-07-04T00:02:07;17.60;99.90
21635;DHT22;10979;48.306;9.830;2022-07-04T00:04:33;17.60;99.90
21635;DHT22;10979;48.306;9.830;2022-07-04T00:06:59;17.70;99.90
21635;DHT22;10979;48.306;9.830;2022-07-04T00:09:24;17.70;99.90
21635;DHT22;10979;48.306;9.830;2022-07-04T00:11:50;17.70;99.90
21635;DHT22;10979;48.306;9.830;2022-07-04T00:14:16;17.80;99.90
21635;DHT22;10979;48.306;9.830;2022-07-04T00:16:42;17.90;99.90
21635;DHT22;10979;48.306;9.830;2022-07-04T00:19:07;17.90;99.90
21635;DHT22;10979;48.306;9.830;2022-07-04T00:21:33;17.90;99.90
21635;DHT22;10979;48.306;9.830;2022-07-04T00:23:58;17.90;99.90
21635;DHT22;10979;48.306;9.830;2022-07-04T00:26:25;17.90;99.90
21635;DHT22;10979;48.306;9.830;2022-07-04T00:28:51;17.80;99.90
21635;DHT22;10979;48.306;9.830;2022-07-04T00:31:16;17.60;99.90
21635;DHT22;10979;48.306;9.830;2022-07-04T00:33:42;17.20;99.90
21635;DHT22;10979;48.306;9.830;2022-07-04T00:36:07;17.20;99.90
21635;DHT22;10979;48.306;9.830;2022-07-04T00:38:33;17.20;99.90
21635;DHT22;10979;48.306;9.830;2022-07-04T00:40:59;17.40;99.90
21635;DHT22;10979;48.306;9.830;2022-07-04T00:43:26;17.40;99.90
21635;DHT22;10979;48.306;9.830;2022-07-04T00:45:51;17.30;99.90
21635;DHT22;10979;48.306;9.830;2022-07-04T00:48:17;17.20;99.90
21635;DHT22;10979;48.306;9.830;2022-07-04T00:50:45;17.10;99.90
21635;DHT22;10979;48.306;9.830;2022-07-04T00:53:12;17.20;99.90
21635;DHT22;10979;48.306;9.830;2022-07-04T00:55:38;17.10;99.90
21635;DHT22;10979;48.306;9.830;2022-07-04T00:58:04;17.00;99.90
21635;DHT22;10979;48.306;9.830;2022-07-04T01:00:30;17.00;99.90
21635;DHT22;10979;48.306;9.830;2022-07-04T01:02:56;16.80;99.90
21635;DHT22;10979;48.306;9.830;2022-07-04T01:05:22;16.70;99.90
21635;DHT22;10979;48.306;9.830;2022-07-04T01:07:47;16.60;99.90
21635;DHT22;10979;48.306;9.830;2022-07-04T01:10:13;16.60;99.90
21635;DHT22;10979;48.306;9.830;2022-07-04T01:12:39;16.50;99.90
21635;DHT22;10979;48.306;9.830;2022-07-04T01:15:06;16.60;99.90
21635;DHT22;10979;48.306;9.830;2022-07-04T01:17:32;16.60;99.90
21635;DHT22;10979;48.306;9.830;2022-07-04T01:19:57;16.60;99.90
21635;DHT22;10979;48.306;9.830;2022-07-04T01:22:23;16.50;99.90
21635;DHT22;10979;48.306;9.830;2022-07-04T01:24:49;16.30;99.90
21635;DHT22;10979;48.306;9.830;2022-07-04T01:27:15;16.30;99.90
21635;DHT22;10979;48.306;9.830;2022-07-04T01:29:41;16.50;99.90
21635;DHT22;10979;48.306;9.830;2022-07-04T01:32:08;16.60;99.90
21635;DHT22;10979;48.306;9.830;2022-07-04T01:34:34;16.60;99.90
21635;DHT22;10979;48.306;9.830;2022-07-04T01:37:01;16.70;99.90
21635;DHT22;10979;48.306;9.830;2022-07-04T01:39:27;16.50;99.90
21635;DHT22;10979;48.306;9.830;2022-07-04T01:41:53;16.50;99.90
21635;DHT22;10979;48.306;9.830;2022-07-04T01:44:18;16.60;99.90
21635;DHT22;10979;48.306;9.830;2022-07-04T01:46:44;16.70;99.90
21635;DHT22;10979;48.306;9.830;2022-07-04T01:49:10;16.60;99.90
21635;DHT22;10979;48.306;9.830;2022-07-04T01:51:35;16.60;99.90
21635;DHT22;10979;48.306;9.830;2022-07-04T01:54:01;16.50;99.90
21635;DHT22;10979;48.306;9.830;2022-07-04T01:56:26;16.70;99.90
21635;DHT22;10979;48.306;9.830;2022-07-04T01:58:52;16.90;99.90
21635;DHT22;10979;48.306;9.830;2022-07-04T02:01:18;16.70;99.90
21635;DHT22;10979;48.306;9.830;2022-07-04T02:04:00;16.60;99.90
21635;DHT22;10979;48.306;9.830;2022-07-04T02:06:26;16.80;99.90
21635;DHT22;10979;48.306;9.830;2022-07-04T02:08:52;16.70;99.90
21635;DHT22;10979;48.306;9.830;2022-07-04T02:11:37;16.60;99.90
21635;DHT22;10979;48.306;9.830;2022-07-04T02:14:21;16.70;99.90
21635;DHT22;10979;48.306;9.830;2022-07-04T02:16:47;16.80;99.90
21635;DHT22;10979;48.306;9.830;2022-07-04T02:19:12;16.80;99.90
21635;DHT22;10979;48.306;9.830;2022-07-04T02:21:38;16.70;99.90
21635;DHT22;10979;48.306;9.830;2022-07-04T02:24:04;16.80;99.90
21635;DHT22;10979;48.306;9.830;2022-07-04T02:26:30;16.90;99.90
21635;DHT22;10979;48.306;9.830;2022-07-04T02:28:55;16.90;99.90
21635;DHT22;10979;48.306;9.830;2022-07-04T02:31:21;16.80;99.90
21635;DHT22;10979;48.306;9.830;2022-07-04T02:33:46;16.90;99.90
21635;DHT22;10979;48.306;9.830;2022-07-04T02:36:12;17.00;99.90
21635;DHT22;10979;48.306;9.830;2022-07-04T02:38:37;16.80;99.90
21635;DHT22;10979;48.306;9.830;2022-07-04T02:41:03;16.80;99.90
21635;DHT22;10979;48.306;9.830;2022-07-04T02:43:28;16.80;99.90
21635;DHT22;10979;48.306;9.830;2022-07-04T02:45:54;16.90;99.90
21635;DHT22;10979;48.306;9.830;2022-07-04T02:48:20;16.90;99.90
21635;DHT22;10979;48.306;9.830;2022-07-04T02:50:45;16.80;99.90
21635;DHT22;10979;48.306;9.830;2022-07-04T02:53:11;16.80;99.90
21635;DHT22;10979;48.306;9.830;2022-07-04T02:55:37;16.80;99.90
21635;DHT22;10979;48.306;9.830;2022-07-04T02:58:02;16.90;99.90
21635;DHT22;10979;48.306;9.830;2022-07-04T03:00:28;16.90;99.90
21635;DHT22;10979;48.306;9.830;2022-07-04T03:02:54;16.90;99.90
21635;DHT22;10979;48.306;9.830;2022-07-04T03:05:20;16.80;99.90
21635;DHT22;10979;48.306;9.830;2022-07-04T03:07:45;16.90;99.90
21635;DHT22;10979;48.306;9.830;2022-07-04T03:10:11;16.80;99.90
21635;DHT22;10979;48.306;9.830;2022-07-04T03:12:37;16.80;99.90
21635;DHT22;10979;48.306;9.830;2022-07-04T03:15:03;16.60;99.90
21635;DHT22;10979;48.306;9.830;2022-07-04T03:17:29;16.40;99.90
21635;DHT22;10979;48.306;9.830;2022-07-04T03:19:59;16.50;99.90
21635;DHT22;10979;48.306;9.830;2022-07-04T03:22:25;16.60;99.90
21635;DHT22;10979;48.306;9.830;2022-07-04T03:24:51;16.80;99.90
21635;DHT22;10979;48.306;9.830;2022-07-04T03:27:16;16.80;99.90
21635;DHT22;10979;48.306;9.830;2022-07-04T03:29:42;16.80;99.90
21635;DHT22;10979;48.306;9.830;2022-07-04T03:32:08;16.70;99.90
21635;DHT22;10979;48.306;9.830;2022-07-04T03:34:33;16.60;99.90
21635;DHT22;10979;48.306;9.830;2022-07-04T03:36:59;16.50;99.90
21635;DHT22;10979;48.306;9.830;2022-07-04T03:39:24;16.30;99.90
21635;DHT22;10979;48.306;9.830;2022-07-04T03:41:50;16.40;99.90
21635;DHT22;10979;48.306;9.830;2022-07-04T03:44:15;16.30;99.90
21635;DHT22;10979;48.306;9.830;2022-07-04T03:46:41;16.50;99.90
21635;DHT22;10979;48.306;9.830;2022-07-04T03:49:07;16.50;99.90
21635;DHT22;10979;48.306;9.830;2022-07-04T03:51:32;16.60;99.90
21635;DHT22;10979;48.306;9.830;2022-07-04T03:53:58;16.60;99.90
21635;DHT22;10979;48.306;9.830;2022-07-04T03:56:24;16.60;99.90
21635;DHT22;10979;48.306;9.830;2022-07-04T03:58:49;16.50;99.90
21635;DHT22;10979;48.306;9.830;2022-07-04T04:01:19;16.50;99.90
21635;DHT22;10979;48.306;9.830;2022-07-04T04:03:45;16.40;99.90
21635;DHT22;10979;48.306;9.830;2022-07-04T04:06:30;16.50;99.90
21635;DHT22;10979;48.306;9.830;2022-07-04T04:08:56;16.50;99.90
21635;DHT22;10979;48.306;9.830;2022-07-04T04:11:21;16.50;99.90
21635;DHT22;10979;48.306;9.830;2022-07-04T04:13:47;16.50;99.90
21635;DHT22;10979;48.306;9.830;2022-07-04T04:16:13;16.50;99.90
21635;DHT22;10979;48.306;9.830;2022-07-04T04:18:38;16.50;99.90
21635;DHT22;10979;48.306;9.830;2022-07-04T04:21:04;16.60;99.90
21635;DHT22;10979;48.306;9.830;2022-07-04T04:23:30;16.60;99.90
21635;DHT22;10979;48.306;9.830;2022-07-04T04:25:56;16.60;99.90
21635;DHT22;10979;48.306;9.830;2022-07-04T04:28:22;16.50;99.90
21635;DHT22;10979;48.306;9.830;2022-07-04T04:30:48;16.50;99.90
21635;DHT22;10979;48.306;9.830;2022-07-04T04:33:14;16.60;99.90
21635;DHT22;10979;48.306;9.830;2022-07-04T04:35:39;16.60;99.90
21635;DHT22;10979;48.306;9.830;2022-07-04T04:38:05;16.70;99.90
21635;DHT22;10979;48.306;9.830;2022-07-04T04:40:30;16.70;99.90
21635;DHT22;10979;48.306;9.830;2022-07-04T04:42:56;16.70;99.90
21635;DHT22;10979;48.306;9.830;2022-07-04T04:45:22;16.70;99.90
21635;DHT22;10979;48.306;9.830;2022-07-04T04:47:47;16.80;99.90
21635;DHT22;10979;48.306;9.830;2022-07-04T04:50:13;16.90;99.90
21635;DHT22;10979;48.306;9.830;2022-07-04T04:52:40;16.90;99.90
21635;DHT22;10979;48.306;9.830;2022-07-04T04:55:06;17.00;99.90
21635;DHT22;10979;48.306;9.830;2022-07-04T04:57:32;17.20;99.90
21635;DHT22;10979;48.306;9.830;2022-07-04T05:00:01;17.20;99.90
21635;DHT22;10979;48.306;9.830;2022-07-04T05:02:26;17.10;99.90
21635;DHT22;10979;48.306;9.830;2022-07-04T05:04:53;17.10;99.90
21635;DHT22;10979;48.306;9.830;2022-07-04T05:07:19;17.20;99.90
21635;DHT22;10979;48.306;9.830;2022-07-04T05:09:44;17.20;99.90
21635;DHT22;10979;48.306;9.830;2022-07-04T05:12:10;17.10;99.90
21635;DHT22;10979;48.306;9.830;2022-07-04T05:14:36;17.20;99.90
21635;DHT22;10979;48.306;9.830;2022-07-04T05:17:02;17.20;99.90
21635;DHT22;10979;48.306;9.830;2022-07-04T05:19:28;17.20;99.90
21635;DHT22;10979;48.306;9.830;2022-07-04T05:21:53;17.40;99.90
21635;DHT22;10979;48.306;9.830;2022-07-04T05:24:19;17.50;99.90
21635;DHT22;10979;48.306;9.830;2022-07-04T05:26:44;17.50;99.90
21635;DHT22;10979;48.306;9.830;2022-07-04T05:29:10;17.60;99.90
21635;DHT22;10979;48.306;9.830;2022-07-04T05:31:36;17.60;99.90
21635;DHT22;10979;48.306;9.830;2022-07-04T05:34:01;17.80;99.90
21635;DHT22;10979;48.306;9.830;2022-07-04T05:36:27;17.80;99.90
21635;DHT22;10979;48.306;9.830;2022-07-04T05:38:53;18.00;99.90
21635;DHT22;10979;48.306;9.830;2022-07-04T05:41:19;18.10;99.90
21635;DHT22;10979;48.306;9.830;2022-07-04T05:43:44;18.10;99.90
21635;DHT22;10979;48.306;9.830;2022-07-04T05:46:10;18.20;99.90
21635;DHT22;10979;48.306;9.830;2022-07-04T05:48:36;18.40;99.90
21635;DHT22;10979;48.306;9.830;2022-07-04T05:51:04;18.50;99.90
21635;DHT22;10979;48.306;9.830;2022-07-04T05:53:30;18.60;99.90
21635;DHT22;10979;48.306;9.830;2022-07-04T05:55:55;18.70;99.90
21635;DHT22;10979;48.306;9.830;2022-07-04T05:58:21;18.80;99.90
21635;DHT22;10979;48.306;9.830;2022-07-04T06:00:47;18.70;99.90
21635;DHT22;10979;48.306;9.830;2022-07-04T06:03:12;18.80;99.90
21635;DHT22;10979;48.306;9.830;2022-07-04T06:05:38;18.90;99.90
21635;DHT22;10979;48.306;9.830;2022-07-04T06:08:04;18.90;99.90
21635;DHT22;10979;48.306;9.830;2022-07-04T06:10:29;18.90;99.90
21635;DHT22;10979;48.306;9.830;2022-07-04T06:12:55;19.20;99.90
21635;DHT22;10979;48.306;9.830;2022-07-04T06:15:21;19.20;99.90
21635;DHT22;10979;48.306;9.830;2022-07-04T06:17:46;19.10;99.90
21635;DHT22;10979;48.306;9.830;2022-07-04T06:20:12;19.10;99.90
21635;DHT22;10979;48.306;9.830;2022-07-04T06:22:42;19.30;99.90
21635;DHT22;10979;48.306;9.830;2022-07-04T06:25:15;19.30;99.90
21635;DHT22;10979;48.306;9.830;2022-07-04T06:27:42;19.40;99.90
21635;DHT22;10979;48.306;9.830;2022-07-04T06:30:09;19.20;99.90
21635;DHT22;10979;48.306;9.830;2022-07-04T06:32:47;19.10;99.90
21635;DHT22;10979;48.306;9.830;2022-07-04T06:35:14;19.10;99.90
21635;DHT22;10979;48.306;9.830;2022-07-04T06:38:01;19.20;99.90
21635;DHT22;10979;48.306;9.830;2022-07-04T06:40:27;19.40;99.90
21635;DHT22;10979;48.306;9.830;2022-07-04T06:42:52;19.20;99.90
21635;DHT22;10979;48.306;9.830;2022-07-04T06:45:18;19.20;99.90
21635;DHT22;10979;48.306;9.830;2022-07-04T06:47:44;19.40;99.90
21635;DHT22;10979;48.306;9.830;2022-07-04T06:50:10;19.60;99.90
21635;DHT22;10979;48.306;9.830;2022-07-04T06:52:35;19.50;99.90
21635;DHT22;10979;48.306;9.830;2022-07-04T06:55:02;19.80;99.90
21635;DHT22;10979;48.306;9.830;2022-07-04T06:57:27;20.30;99.90
21635;DHT22;10979;48.306;9.830;2022-07-04T06:59:53;20.40;99.90
21635;DHT22;10979;48.306;9.830;2022-07-04T07:02:18;20.40;99.90
21635;DHT22;10979;48.306;9.830;2022-07-04T07:04:44;20.90;99.90
21635;DHT22;10979;48.306;9.830;2022-07-04T07:07:10;21.30;99.90
21635;DHT22;10979;48.306;9.830;2022-07-04T07:09:35;21.50;99.90
21635;DHT22;10979;48.306;9.830;2022-07-04T07:12:01;22.00;99.90
21635;DHT22;10979;48.306;9.830;2022-07-04T07:14:27;22.60;99.90
21635;DHT22;10979;48.306;9.830;2022-07-04T07:16:53;22.50;99.90
21635;DHT22;10979;48.306;9.830;2022-07-04T07:19:19;22.90;99.90
21635;DHT22;10979;48.306;9.830;2022-07-04T07:21:45;22.60;99.90
21635;DHT22;10979;48.306;9.830;2022-07-04T07:24:10;22.80;99.90
21635;DHT22;10979;48.306;9.830;2022-07-04T07:26:36;23.10;99.90
21635;DHT22;10979;48.306;9.830;2022-07-04T07:29:01;22.10;99.90
21635;DHT22;10979;48.306;9.830;2022-07-04T07:31:27;22.70;99.90
21635;DHT22;10979;48.306;9.830;2022-07-04T07:33:53;23.90;99.90
21635;DHT22;10979;48.306;9.830;2022-07-04T07:36:19;24.30;99.90
21635;DHT22;10979;48.306;9.830;2022-07-04T07:38:44;23.80;99.90
21635;DHT22;10979;48.306;9.830;2022-07-04T07:41:10;24.20;99.90
21635;DHT22;10979;48.306;9.830;2022-07-04T07:43:36;24.50;99.90
21635;DHT22;10979;48.306;9.830;2022-07-04T07:46:06;24.30;99.90
21635;DHT22;10979;48.306;9.830;2022-07-04T07:48:32;25.80;99.90
21635;DHT22;10979;48.306;9.830;2022-07-04T07:50:58;26.20;99.90
21635;DHT22;10979;48.306;9.830;2022-07-04T07:53:24;26.60;99.90
21635;DHT22;10979;48.306;9.830;2022-07-04T07:55:49;27.50;99.90
21635;DHT22;10979;48.306;9.830;2022-07-04T07:58:15;28.20;99.90
21635;DHT22;10979;48.306;9.830;2022-07-04T08:00:41;27.90;99.90
21635;DHT22;10979;48.306;9.830;2022-07-04T08:03:06;26.90;99.90
21635;DHT22;10979;48.306;9.830;2022-07-04T08:05:51;26.20;99.90
21635;DHT22;10979;48.306;9.830;2022-07-04T08:08:16;27.10;99.90
21635;DHT22;10979;48.306;9.830;2022-07-04T08:10:42;27.70;99.90
21635;DHT22;10979;48.306;9.830;2022-07-04T08:13:07;28.00;99.90
21635;DHT22;10979;48.306;9.830;2022-07-04T08:15:33;28.80;99.90
21635;DHT22;10979;48.306;9.830;2022-07-04T08:17:59;29.00;99.90
21635;DHT22;10979;48.306;9.830;2022-07-04T08:20:25;29.30;99.90
21635;DHT22;10979;48.306;9.830;2022-07-04T08:22:51;28.30;99.90
21635;DHT22;10979;48.306;9.830;2022-07-04T08:25:16;28.30;99.90
21635;DHT22;10979;48.306;9.830;2022-07-04T08:27:42;28.00;99.90
21635;DHT22;10979;48.306;9.830;2022-07-04T08:30:09;29.10;99.90
21635;DHT22;10979;48.306;9.830;2022-07-04T08:32:35;29.10;99.90
21635;DHT22;10979;48.306;9.830;2022-07-04T08:35:02;29.30;99.90
21635;DHT22;10979;48.306;9.830;2022-07-04T08:37:28;29.00;99.90
21635;DHT22;10979;48.306;9.830;2022-07-04T08:39:54;29.40;99.90
21635;DHT22;10979;48.306;9.830;2022-07-04T08:42:21;30.50;99.90
21635;DHT22;10979;48.306;9.830;2022-07-04T08:44:56;29.50;99.90
21635;DHT22;10979;48.306;9.830;2022-07-04T08:47:23;30.00;99.90
21635;DHT22;10979;48.306;9.830;2022-07-04T08:54:59;29.70;99.90
21635;DHT22;10979;48.306;9.830;2022-07-04T08:57:46;30.10;99.90
21635;DHT22;10979;48.306;9.830;2022-07-04T09:00:35;31.60;99.90
21635;DHT22;10979;48.306;9.830;2022-07-04T09:03:02;30.10;99.90
21635;DHT22;10979;48.306;9.830;2022-07-04T09:05:28;30.10;99.90
21635;DHT22;10979;48.306;9.830;2022-07-04T09:07:54;30.00;99.90
21635;DHT22;10979;48.306;9.830;2022-07-04T09:10:21;29.80;99.90
21635;DHT22;10979;48.306;9.830;2022-07-04T09:12:48;29.30;99.90
21635;DHT22;10979;48.306;9.830;2022-07-04T09:15:15;29.40;99.90
21635;DHT22;10979;48.306;9.830;2022-07-04T09:17:40;29.70;99.90
21635;DHT22;10979;48.306;9.830;2022-07-04T09:20:18;30.70;99.90
21635;DHT22;10979;48.306;9.830;2022-07-04T09:22:44;30.10;99.90
21635;DHT22;10979;48.306;9.830;2022-07-04T09:25:10;27.80;99.90
21635;DHT22;10979;48.306;9.830;2022-07-04T09:27:47;28.50;99.90
21635;DHT22;10979;48.306;9.830;2022-07-04T09:30:16;29.20;99.90
21635;DHT22;10979;48.306;9.830;2022-07-04T09:35:11;27.10;99.90
21635;DHT22;10979;48.306;9.830;2022-07-04T09:37:39;26.80;99.90
21635;DHT22;10979;48.306;9.830;2022-07-04T09:40:10;27.10;99.90
21635;DHT22;10979;48.306;9.830;2022-07-04T09:42:37;27.30;99.90
21635;DHT22;10979;48.306;9.830;2022-07-04T09:45:09;27.20;99.90
21635;DHT22;10979;48.306;9.830;2022-07-04T09:47:36;26.90;99.90
21635;DHT22;10979;48.306;9.830;2022-07-04T09:50:13;26.80;99.90
21635;DHT22;10979;48.306;9.830;2022-07-04T09:52:58;26.80;99.90
21635;DHT22;10979;48.306;9.830;2022-07-04T09:55:33;28.50;99.90
21635;DHT22;10979;48.306;9.830;2022-07-04T09:58:01;28.70;99.90
21635;DHT22;10979;48.306;9.830;2022-07-04T10:02:55;26.90;99.90
21635;DHT22;10979;48.306;9.830;2022-07-04T10:05:27;26.80;99.90
21635;DHT22;10979;48.306;9.830;2022-07-04T10:07:55;26.80;99.90
21635;DHT22;10979;48.306;9.830;2022-07-04T10:10:23;26.50;99.90
21635;DHT22;10979;48.306;9.830;2022-07-04T10:12:50;26.30;99.90
21635;DHT22;10979;48.306;9.830;2022-07-04T10:15:17;26.50;99.90
21635;DHT22;10979;48.306;9.830;2022-07-04T10:17:42;26.00;99.90
21635;DHT22;10979;48.306;9.830;2022-07-04T10:20:09;26.40;99.90
21635;DHT22;10979;48.306;9.830;2022-07-04T10:22:36;26.60;99.90
21635;DHT22;10979;48.306;9.830;2022-07-04T10:25:03;26.70;99.90
21635;DHT22;10979;48.306;9.830;2022-07-04T10:27:29;26.50;99.90
21635;DHT22;10979;48.306;9.830;2022-07-04T10:29:55;26.60;99.90
21635;DHT22;10979;48.306;9.830;2022-07-04T10:32:21;26.70;99.90
21635;DHT22;10979;48.306;9.830;2022-07-04T10:34:47;26.10;99.90
21635;DHT22;10979;48.306;9.830;2022-07-04T10:37:13;26.70;99.90
21635;DHT22;10979;48.306;9.830;2022-07-04T10:39:38;27.00;99.90
21635;DHT22;10979;48.306;9.830;2022-07-04T10:42:06;27.00;99.90
21635;DHT22;10979;48.306;9.830;2022-07-04T10:44:32;26.20;99.90
21635;DHT22;10979;48.306;9.830;2022-07-04T10:47:03;26.20;99.90
21635;DHT22;10979;48.306;9.830;2022-07-04T10:49:29;26.80;99.90
21635;DHT22;10979;48.306;9.830;2022-07-04T10:52:10;27.20;99.90
21635;DHT22;10979;48.306;9.830;2022-07-04T10:54:38;26.00;99.90
21635;DHT22;10979;48.306;9.830;2022-07-04T10:57:09;26.10;99.90
21635;DHT22;10979;48.306;9.830;2022-07-04T10:59:35;27.20;99.90
21635;DHT22;10979;48.306;9.830;2022-07-04T11:17:53;26.40;99.90
21635;DHT22;10979;48.306;9.830;2022-07-04T11:20:19;26.60;99.90
21635;DHT22;10979;48.306;9.830;2022-07-04T11:22:45;26.40;99.90
21635;DHT22;10979;48.306;9.830;2022-07-04T11:25:11;26.20;99.90
21635;DHT22;10979;48.306;9.830;2022-07-04T11:27:38;26.60;99.90
21635;DHT22;10979;48.306;9.830;2022-07-04T11:30:04;26.90;99.90
21635;DHT22;10979;48.306;9.830;2022-07-04T11:32:31;27.40;99.90
21635;DHT22;10979;48.306;9.830;2022-07-04T11:34:56;27.50;99.90
21635;DHT22;10979;48.306;9.830;2022-07-04T11:37:22;27.80;99.90
21635;DHT22;10979;48.306;9.830;2022-07-04T11:39:52;27.30;99.90
21635;DHT22;10979;48.306;9.830;2022-07-04T11:42:18;27.20;99.90
21635;DHT22;10979;48.306;9.830;2022-07-04T11:45:03;26.80;99.90
21635;DHT22;10979;48.306;9.830;2022-07-04T11:50:06;27.40;99.90
21635;DHT22;10979;48.306;9.830;2022-07-04T11:55:04;27.10;99.90
21635;DHT22;10979;48.306;9.830;2022-07-04T11:57:35;27.00;99.90
21635;DHT22;10979;48.306;9.830;2022-07-04T12:02:32;27.00;99.90
21635;DHT22;10979;48.306;9.830;2022-07-04T12:04:59;27.00;99.90
21635;DHT22;10979;48.306;9.830;2022-07-04T12:07:29;27.20;99.90
21635;DHT22;10979;48.306;9.830;2022-07-04T12:10:10;26.30;99.90
21635;DHT22;10979;48.306;9.830;2022-07-04T12:12:50;26.80;99.90
21635;DHT22;10979;48.306;9.830;2022-07-04T12:15:16;26.60;99.90
21635;DHT22;10979;48.306;9.830;2022-07-04T12:17:42;26.40;99.90
21635;DHT22;10979;48.306;9.830;2022-07-04T12:20:13;26.30;99.90
21635;DHT22;10979;48.306;9.830;2022-07-04T12:22:50;26.50;99.90
21635;DHT22;10979;48.306;9.830;2022-07-04T12:25:28;26.50;99.90
21635;DHT22;10979;48.306;9.830;2022-07-04T12:27:59;25.90;99.90
21635;DHT22;10979;48.306;9.830;2022-07-04T12:30:55;25.90;99.90
21635;DHT22;10979;48.306;9.830;2022-07-04T12:33:23;26.20;99.90
21635;DHT22;10979;48.306;9.830;2022-07-04T12:35:54;26.40;99.90
21635;DHT22;10979;48.306;9.830;2022-07-04T12:43:24;26.10;99.90
21635;DHT22;10979;48.306;9.830;2022-07-04T12:45:54;26.30;99.90
21635;DHT22;10979;48.306;9.830;2022-07-04T12:48:28;26.00;99.90
21635;DHT22;10979;48.306;9.830;2022-07-04T12:50:59;26.20;99.90
21635;DHT22;10979;48.306;9.830;2022-07-04T12:53:36;26.10;99.90
21635;DHT22;10979;48.306;9.830;2022-07-04T12:56:02;26.00;99.90
21635;DHT22;10979;48.306;9.830;2022-07-04T12:58:28;25.80;99.90
21635;DHT22;10979;48.306;9.830;2022-07-04T13:00:54;26.30;99.90
21635;DHT22;10979;48.306;9.830;2022-07-04T13:03:19;26.40;99.90
21635;DHT22;10979;48.306;9.830;2022-07-04T13:05:45;26.40;99.90
21635;DHT22;10979;48.306;9.830;2022-07-04T13:08:10;26.40;99.90
21635;DHT22;10979;48.306;9.830;2022-07-04T13:10:37;26.40;99.90
21635;DHT22;10979;48.306;9.830;2022-07-04T13:13:03;26.50;99.90
21635;DHT22;10979;48.306;9.830;2022-07-04T13:15:29;26.30;99.90
21635;DHT22;10979;48.306;9.830;2022-07-04T13:17:54;26.00;99.90
21635;DHT22;10979;48.306;9.830;2022-07-04T13:20:20;26.80;99.90
21635;DHT22;10979;48.306;9.830;2022-07-04T13:22:46;26.80;99.90
21635;DHT22;10979;48.306;9.830;2022-07-04T13:25:11;26.10;99.90
21635;DHT22;10979;48.306;9.830;2022-07-04T13:27:37;25.50;99.90
21635;DHT22;10979;48.306;9.830;2022-07-04T13:30:03;25.60;99.90
21635;DHT22;10979;48.306;9.830;2022-07-04T13:32:29;25.40;99.90
21635;DHT22;10979;48.306;9.830;2022-07-04T13:34:54;25.50;99.90
21635;DHT22;10979;48.306;9.830;2022-07-04T13:37:20;25.50;99.90
21635;DHT22;10979;48.306;9.830;2022-07-04T13:39:46;25.60;99.90
21635;DHT22;10979;48.306;9.830;2022-07-04T13:42:11;25.60;99.90
21635;DHT22;10979;48.306;9.830;2022-07-04T13:44:37;25.50;99.90
21635;DHT22;10979;48.306;9.830;2022-07-04T13:47:03;25.30;99.90
21635;DHT22;10979;48.306;9.830;2022-07-04T13:49:29;25.60;99.90
21635;DHT22;10979;48.306;9.830;2022-07-04T13:51:54;25.50;99.90
21635;DHT22;10979;48.306;9.830;2022-07-04T13:54:20;25.40;99.90
21635;DHT22;10979;48.306;9.830;2022-07-04T13:56:46;25.20;99.90
21635;DHT22;10979;48.306;9.830;2022-07-04T13:59:11;24.90;99.90
21635;DHT22;10979;48.306;9.830;2022-07-04T14:01:38;24.70;99.90
21635;DHT22;10979;48.306;9.830;2022-07-04T14:04:03;24.70;99.90
21635;DHT22;10979;48.306;9.830;2022-07-04T14:06:29;24.50;99.90
21635;DHT22;10979;48.306;9.830;2022-07-04T14:08:55;24.40;99.90
21635;DHT22;10979;48.306;9.830;2022-07-04T14:11:21;24.20;99.90
21635;DHT22;10979;48.306;9.830;2022-07-04T14:13:47;24.20;99.90
21635;DHT22;10979;48.306;9.830;2022-07-04T14:16:13;24.00;99.90
21635;DHT22;10979;48.306;9.830;2022-07-04T14:18:39;23.80;99.90
21635;DHT22;10979;48.306;9.830;2022-07-04T14:21:05;23.80;99.90
21635;DHT22;10979;48.306;9.830;2022-07-04T14:23:30;23.70;99.90
21635;DHT22;10979;48.306;9.830;2022-07-04T14:26:12;23.70;99.90
21635;DHT22;10979;48.306;9.830;2022-07-04T14:28:38;23.90;99.90
21635;DHT22;10979;48.306;9.830;2022-07-04T14:31:04;24.10;99.90
21635;DHT22;10979;48.306;9.830;2022-07-04T14:33:31;24.20;99.90
21635;DHT22;10979;48.306;9.830;2022-07-04T14:36:01;24.40;99.90
21635;DHT22;10979;48.306;9.830;2022-07-04T14:38:27;24.70;99.90
21635;DHT22;10979;48.306;9.830;2022-07-04T14:40:53;24.80;99.90
21635;DHT22;10979;48.306;9.830;2022-07-04T14:43:18;25.00;99.90
21635;DHT22;10979;48.306;9.830;2022-07-04T14:45:45;25.20;99.90
21635;DHT22;10979;48.306;9.830;2022-07-04T14:48:15;25.10;99.90
21635;DHT22;10979;48.306;9.830;2022-07-04T14:50:40;25.10;99.90
21635;DHT22;10979;48.306;9.830;2022-07-04T14:53:06;25.10;99.90
21635;DHT22;10979;48.306;9.830;2022-07-04T14:55:32;24.80;99.90
21635;DHT22;10979;48.306;9.830;2022-07-04T14:57:57;24.60;99.90
21635;DHT22;10979;48.306;9.830;2022-07-04T15:00:23;24.50;99.90
21635;DHT22;10979;48.306;9.830;2022-07-04T15:02:49;24.70;99.90
21635;DHT22;10979;48.306;9.830;2022-07-04T15:05:15;24.40;99.90
21635;DHT22;10979;48.306;9.830;2022-07-04T15:07:41;24.30;99.90
21635;DHT22;10979;48.306;9.830;2022-07-04T15:10:06;24.30;99.90
21635;DHT22;10979;48.306;9.830;2022-07-04T15:12:34;24.30;99.90
21635;DHT22;10979;48.306;9.830;2022-07-04T15:14:59;24.20;99.90
21635;DHT22;10979;48.306;9.830;2022-07-04T15:17:25;24.10;99.90
21635;DHT22;10979;48.306;9.830;2022-07-04T15:19:50;24.00;99.90
21635;DHT22;10979;48.306;9.830;2022-07-04T15:22:35;23.90;99.90
21635;DHT22;10979;48.306;9.830;2022-07-04T15:25:19;23.80;99.90
21635;DHT22;10979;48.306;9.830;2022-07-04T15:27:44;23.80;99.90
21635;DHT22;10979;48.306;9.830;2022-07-04T15:30:10;23.70;99.90
21635;DHT22;10979;48.306;9.830;2022-07-04T15:32:36;23.60;99.90
21635;DHT22;10979;48.306;9.830;2022-07-04T15:35:02;23.60;99.90
21635;DHT22;10979;48.306;9.830;2022-07-04T15:37:28;23.50;99.90
21635;DHT22;10979;48.306;9.830;2022-07-04T15:39:53;23.30;99.90
21635;DHT22;10979;48.306;9.830;2022-07-04T15:42:19;23.30;99.90
21635;DHT22;10979;48.306;9.830;2022-07-04T15:44:44;23.10;99.90
21635;DHT22;10979;48.306;9.830;2022-07-04T15:47:10;22.90;99.90
21635;DHT22;10979;48.306;9.830;2022-07-04T15:49:36;22.80;99.90
21635;DHT22;10979;48.306;9.830;2022-07-04T15:52:03;22.60;99.90
21635;DHT22;10979;48.306;9.830;2022-07-04T15:54:31;22.60;99.90
21635;DHT22;10979;48.306;9.830;2022-07-04T15:56:57;22.50;99.90
21635;DHT22;10979;48.306;9.830;2022-07-04T15:59:23;22.50;99.90
21635;DHT22;10979;48.306;9.830;2022-07-04T16:01:48;22.40;99.90
21635;DHT22;10979;48.306;9.830;2022-07-04T16:04:14;22.40;99.90
21635;DHT22;10979;48.306;9.830;2022-07-04T16:06:40;22.20;99.90
21635;DHT22;10979;48.306;9.830;2022-07-04T16:09:07;22.20;99.90